sensor_id;sensor_type;location;lat;lon;timestamp;P1;durP1;ratioP1;P2;durP2;ratioP2
68229;SDS011;55048;52.220;5.160;2022-10-16T00:00:40;3.15;;;0.52;;
68229;SDS011;55048;52.220;5.160;2022-10-16T00:03:06;11.85;;;0.60;;
68229;SDS011;55048;52.220;5.160;2022-10-16T00:05:33;3.70;;;0.60;;
68229;SDS011;55048;52.220;5.160;2022-10-16T00:08:03;3.40;;;0.50;;
68229;SDS011;55048;52.220;5.160;2022-10-16T00:10:29;4.68;;;0.85;;
68229;SDS011;55048;52.220;5.160;2022-10-16T00:12:54;2.72;;;0.60;;
68229;SDS011;55048;52.220;5.160;2022-10-16T00:15:20;4.90;;;0.60;;
68229;SDS011;55048;52.220;5.160;2022-10-16T00:17:45;5.57;;;0.82;;
68229;SDS011;55048;52.220;5.160;2022-10-16T00:20:11;4.10;;;0.52;;
68229;SDS011;55048;52.220;5.160;2022-10-16T00:22:36;3.65;;;0.60;;
68229;SDS011;55048;52.220;5.160;2022-10-16T00:25:02;2.15;;;0.50;;
68229;SDS011;55048;52.220;5.160;2022-10-16T00:27:28;5.50;;;0.70;;
68229;SDS011;55048;52.220;5.160;2022-10-16T00:29:53;1.48;;;0.50;;
68229;SDS011;55048;52.220;5.160;2022-10-16T00:32:19;1.98;;;0.60;;
68229;SDS011;55048;52.220;5.160;2022-10-16T00:34:45;4.00;;;0.63;;
68229;SDS011;55048;52.220;5.160;2022-10-16T00:37:10;2.88;;;0.55;;
68229;SDS011;55048;52.220;5.160;2022-10-16T00:39:36;3.22;;;0.50;;
68229;SDS011;55048;52.220;5.160;2022-10-16T00:42:02;1.40;;;0.63;;
68229;SDS011;55048;52.220;5.160;2022-10-16T00:44:47;3.13;;;0.63;;
68229;SDS011;55048;52.220;5.160;2022-10-16T00:47:18;3.85;;;0.63;;
68229;SDS011;55048;52.220;5.160;2022-10-16T00:49:47;2.20;;;0.50;;
68229;SDS011;55048;52.220;5.160;2022-10-16T00:52:16;4.05;;;0.80;;
68229;SDS011;55048;52.220;5.160;2022-10-16T00:54:43;8.82;;;0.70;;
68229;SDS011;55048;52.220;5.160;2022-10-16T00:57:11;4.65;;;0.60;;
68229;SDS011;55048;52.220;5.160;2022-10-16T00:59:38;2.55;;;0.60;;
68229;SDS011;55048;52.220;5.160;2022-10-16T01:02:06;1.38;;;0.70;;
68229;SDS011;55048;52.220;5.160;2022-10-16T01:04:38;1.73;;;0.63;;
68229;SDS011;55048;52.220;5.160;2022-10-16T01:07:12;5.30;;;0.80;;
68229;SDS011;55048;52.220;5.160;2022-10-16T01:12:50;3.03;;;0.47;;
68229;SDS011;55048;52.220;5.160;2022-10-16T01:15:36;6.53;;;0.60;;
68229;SDS011;55048;52.220;5.160;2022-10-16T01:18:14;2.85;;;0.60;;
68229;SDS011;55048;52.220;5.160;2022-10-16T01:20:48;2.33;;;0.70;;
68229;SDS011;55048;52.220;5.160;2022-10-16T01:28:56;2.53;;;0.75;;
68229;SDS011;55048;52.220;5.160;2022-10-16T01:31:29;2.50;;;0.73;;
68229;SDS011;55048;52.220;5.160;2022-10-16T01:34:02;2.22;;;0.60;;
68229;SDS011;55048;52.220;5.160;2022-10-16T01:36:39;3.67;;;0.80;;
68229;SDS011;55048;52.220;5.160;2022-10-16T01:39:10;1.23;;;0.68;;
68229;SDS011;55048;52.220;5.160;2022-10-16T01:41:38;3.38;;;0.90;;
68229;SDS011;55048;52.220;5.160;2022-10-16T01:44:19;1.58;;;0.70;;
68229;SDS011;55048;52.220;5.160;2022-10-16T01:46:50;1.92;;;0.68;;
68229;SDS011;55048;52.220;5.160;2022-10-16T01:49:18;2.72;;;0.90;;
68229;SDS011;55048;52.220;5.160;2022-10-16T01:51:47;3.70;;;0.70;;
68229;SDS011;55048;52.220;5.160;2022-10-16T01:54:17;2.53;;;0.60;;
68229;SDS011;55048;52.220;5.160;2022-10-16T01:56:45;2.42;;;0.70;;
68229;SDS011;55048;52.220;5.160;2022-10-16T01:59:15;1.85;;;0.70;;
68229;SDS011;55048;52.220;5.160;2022-10-16T02:01:45;5.00;;;0.80;;
68229;SDS011;55048;52.220;5.160;2022-10-16T02:04:25;3.58;;;0.70;;
68229;SDS011;55048;52.220;5.160;2022-10-16T02:06:54;3.40;;;0.70;;
68229;SDS011;55048;52.220;5.160;2022-10-16T02:09:20;3.92;;;0.90;;
68229;SDS011;55048;52.220;5.160;2022-10-16T02:11:46;1.85;;;0.70;;
68229;SDS011;55048;52.220;5.160;2022-10-16T02:14:14;3.03;;;0.77;;
68229;SDS011;55048;52.220;5.160;2022-10-16T02:16:45;1.17;;;0.77;;
68229;SDS011;55048;52.220;5.160;2022-10-16T02:19:15;4.10;;;0.80;;
68229;SDS011;55048;52.220;5.160;2022-10-16T02:21:54;1.85;;;0.80;;
68229;SDS011;55048;52.220;5.160;2022-10-16T02:24:38;3.35;;;1.00;;
68229;SDS011;55048;52.220;5.160;2022-10-16T02:32:41;3.05;;;0.80;;
68229;SDS011;55048;52.220;5.160;2022-10-16T02:35:09;2.07;;;0.90;;
68229;SDS011;55048;52.220;5.160;2022-10-16T02:37:35;5.68;;;0.88;;
68229;SDS011;55048;52.220;5.160;2022-10-16T02:40:03;3.47;;;1.10;;
68229;SDS011;55048;52.220;5.160;2022-10-16T02:42:34;3.40;;;0.85;;
68229;SDS011;55048;52.220;5.160;2022-10-16T02:45:00;9.85;;;1.63;;
68229;SDS011;55048;52.220;5.160;2022-10-16T02:47:26;6.47;;;1.02;;
68229;SDS011;55048;52.220;5.160;2022-10-16T02:49:51;6.72;;;1.20;;
68229;SDS011;55048;52.220;5.160;2022-10-16T02:52:17;2.75;;;0.90;;
68229;SDS011;55048;52.220;5.160;2022-10-16T02:54:42;3.45;;;0.88;;
68229;SDS011;55048;52.220;5.160;2022-10-16T02:57:07;2.83;;;1.00;;
68229;SDS011;55048;52.220;5.160;2022-10-16T02:59:33;2.65;;;1.00;;
68229;SDS011;55048;52.220;5.160;2022-10-16T03:01:58;2.17;;;0.90;;
68229;SDS011;55048;52.220;5.160;2022-10-16T03:04:23;3.63;;;1.00;;
68229;SDS011;55048;52.220;5.160;2022-10-16T03:06:49;4.95;;;1.05;;
68229;SDS011;55048;52.220;5.160;2022-10-16T03:09:14;2.85;;;1.00;;
68229;SDS011;55048;52.220;5.160;2022-10-16T03:11:40;4.28;;;1.35;;
68229;SDS011;55048;52.220;5.160;2022-10-16T03:14:05;2.10;;;0.90;;
68229;SDS011;55048;52.220;5.160;2022-10-16T03:16:31;1.90;;;0.90;;
68229;SDS011;55048;52.220;5.160;2022-10-16T03:18:56;3.20;;;0.80;;
68229;SDS011;55048;52.220;5.160;2022-10-16T03:21:21;8.00;;;1.00;;
68229;SDS011;55048;52.220;5.160;2022-10-16T03:23:47;3.22;;;1.00;;
68229;SDS011;55048;52.220;5.160;2022-10-16T03:26:12;4.53;;;1.10;;
68229;SDS011;55048;52.220;5.160;2022-10-16T03:28:37;4.63;;;0.80;;
68229;SDS011;55048;52.220;5.160;2022-10-16T03:31:03;2.17;;;0.80;;
68229;SDS011;55048;52.220;5.160;2022-10-16T03:33:28;4.15;;;0.90;;
68229;SDS011;55048;52.220;5.160;2022-10-16T03:35:54;3.67;;;0.90;;
68229;SDS011;55048;52.220;5.160;2022-10-16T03:38:20;2.55;;;0.80;;
68229;SDS011;55048;52.220;5.160;2022-10-16T03:40:46;8.05;;;1.00;;
68229;SDS011;55048;52.220;5.160;2022-10-16T03:43:11;2.58;;;0.88;;
68229;SDS011;55048;52.220;5.160;2022-10-16T03:45:37;2.92;;;0.70;;
68229;SDS011;55048;52.220;5.160;2022-10-16T03:48:02;1.50;;;0.70;;
68229;SDS011;55048;52.220;5.160;2022-10-16T03:50:28;1.30;;;0.90;;
68229;SDS011;55048;52.220;5.160;2022-10-16T03:52:54;2.65;;;0.95;;
68229;SDS011;55048;52.220;5.160;2022-10-16T03:55:19;3.30;;;1.00;;
68229;SDS011;55048;52.220;5.160;2022-10-16T03:57:45;2.88;;;0.85;;
68229;SDS011;55048;52.220;5.160;2022-10-16T04:00:10;6.03;;;0.80;;
68229;SDS011;55048;52.220;5.160;2022-10-16T04:02:39;3.00;;;0.90;;
68229;SDS011;55048;52.220;5.160;2022-10-16T04:05:05;7.00;;;1.00;;
68229;SDS011;55048;52.220;5.160;2022-10-16T04:07:30;7.47;;;1.00;;
68229;SDS011;55048;52.220;5.160;2022-10-16T04:09:56;4.40;;;0.90;;
68229;SDS011;55048;52.220;5.160;2022-10-16T04:12:23;2.88;;;0.82;;
68229;SDS011;55048;52.220;5.160;2022-10-16T04:14:49;3.47;;;0.80;;
68229;SDS011;55048;52.220;5.160;2022-10-16T04:17:15;1.98;;;0.70;;
68229;SDS011;55048;52.220;5.160;2022-10-16T04:19:41;1.75;;;0.80;;
68229;SDS011;55048;52.220;5.160;2022-10-16T04:22:06;1.60;;;0.60;;
68229;SDS011;55048;52.220;5.160;2022-10-16T04:24:31;1.42;;;0.60;;
68229;SDS011;55048;52.220;5.160;2022-10-16T04:26:57;1.90;;;0.70;;
68229;SDS011;55048;52.220;5.160;2022-10-16T04:29:22;5.25;;;0.70;;
68229;SDS011;55048;52.220;5.160;2022-10-16T04:31:47;4.60;;;0.98;;
68229;SDS011;55048;52.220;5.160;2022-10-16T04:34:13;7.63;;;0.75;;
68229;SDS011;55048;52.220;5.160;2022-10-16T04:36:38;1.98;;;0.77;;
68229;SDS011;55048;52.220;5.160;2022-10-16T04:39:03;1.92;;;0.60;;
68229;SDS011;55048;52.220;5.160;2022-10-16T04:41:29;3.22;;;0.70;;
68229;SDS011;55048;52.220;5.160;2022-10-16T04:43:54;2.42;;;0.68;;
68229;SDS011;55048;52.220;5.160;2022-10-16T04:46:20;4.10;;;0.88;;
68229;SDS011;55048;52.220;5.160;2022-10-16T04:48:45;1.50;;;0.57;;
68229;SDS011;55048;52.220;5.160;2022-10-16T04:51:11;4.65;;;0.70;;
68229;SDS011;55048;52.220;5.160;2022-10-16T04:53:37;3.88;;;0.88;;
68229;SDS011;55048;52.220;5.160;2022-10-16T04:56:02;1.42;;;0.80;;
68229;SDS011;55048;52.220;5.160;2022-10-16T04:58:28;1.48;;;0.60;;
68229;SDS011;55048;52.220;5.160;2022-10-16T05:00:53;1.88;;;0.60;;
68229;SDS011;55048;52.220;5.160;2022-10-16T05:03:18;1.70;;;0.90;;
68229;SDS011;55048;52.220;5.160;2022-10-16T05:05:44;4.03;;;0.77;;
68229;SDS011;55048;52.220;5.160;2022-10-16T05:08:14;2.25;;;0.70;;
68229;SDS011;55048;52.220;5.160;2022-10-16T05:10:40;3.70;;;0.80;;
68229;SDS011;55048;52.220;5.160;2022-10-16T05:13:07;1.38;;;0.75;;
68229;SDS011;55048;52.220;5.160;2022-10-16T05:15:32;3.20;;;0.68;;
68229;SDS011;55048;52.220;5.160;2022-10-16T05:17:58;2.63;;;0.85;;
68229;SDS011;55048;52.220;5.160;2022-10-16T05:20:23;2.70;;;0.80;;
68229;SDS011;55048;52.220;5.160;2022-10-16T05:22:49;1.25;;;0.70;;
68229;SDS011;55048;52.220;5.160;2022-10-16T05:25:14;4.22;;;0.93;;
68229;SDS011;55048;52.220;5.160;2022-10-16T05:27:40;8.50;;;0.85;;
68229;SDS011;55048;52.220;5.160;2022-10-16T05:30:05;3.10;;;0.80;;
68229;SDS011;55048;52.220;5.160;2022-10-16T05:32:31;3.63;;;0.80;;
68229;SDS011;55048;52.220;5.160;2022-10-16T05:34:57;6.05;;;0.98;;
68229;SDS011;55048;52.220;5.160;2022-10-16T05:37:25;6.40;;;0.82;;
68229;SDS011;55048;52.220;5.160;2022-10-16T05:39:52;4.82;;;0.80;;
68229;SDS011;55048;52.220;5.160;2022-10-16T05:42:17;2.15;;;0.90;;
68229;SDS011;55048;52.220;5.160;2022-10-16T05:44:43;1.75;;;0.70;;
68229;SDS011;55048;52.220;5.160;2022-10-16T05:47:08;6.30;;;0.93;;
68229;SDS011;55048;52.220;5.160;2022-10-16T05:49:35;4.20;;;0.80;;
68229;SDS011;55048;52.220;5.160;2022-10-16T05:52:01;2.90;;;0.90;;
68229;SDS011;55048;52.220;5.160;2022-10-16T05:54:27;5.00;;;0.90;;
68229;SDS011;55048;52.220;5.160;2022-10-16T05:56:52;3.35;;;0.70;;
68229;SDS011;55048;52.220;5.160;2022-10-16T05:59:20;2.28;;;0.80;;
68229;SDS011;55048;52.220;5.160;2022-10-16T06:01:46;5.80;;;0.90;;
68229;SDS011;55048;52.220;5.160;2022-10-16T06:04:11;2.25;;;0.80;;
68229;SDS011;55048;52.220;5.160;2022-10-16T06:06:36;5.50;;;0.85;;
68229;SDS011;55048;52.220;5.160;2022-10-16T06:09:02;2.15;;;0.85;;
68229;SDS011;55048;52.220;5.160;2022-10-16T06:11:29;6.88;;;1.10;;
68229;SDS011;55048;52.220;5.160;2022-10-16T06:13:57;4.95;;;0.98;;
68229;SDS011;55048;52.220;5.160;2022-10-16T06:16:31;4.65;;;1.10;;
68229;SDS011;55048;52.220;5.160;2022-10-16T06:18:58;3.58;;;1.05;;
68229;SDS011;55048;52.220;5.160;2022-10-16T06:21:25;3.53;;;1.10;;
68229;SDS011;55048;52.220;5.160;2022-10-16T06:23:52;4.28;;;1.15;;
68229;SDS011;55048;52.220;5.160;2022-10-16T06:26:20;6.85;;;1.20;;
68229;SDS011;55048;52.220;5.160;2022-10-16T06:28:48;4.82;;;1.45;;
68229;SDS011;55048;52.220;5.160;2022-10-16T06:31:14;5.43;;;1.50;;
68229;SDS011;55048;52.220;5.160;2022-10-16T06:33:40;5.35;;;1.50;;
68229;SDS011;55048;52.220;5.160;2022-10-16T06:36:10;6.38;;;1.33;;
68229;SDS011;55048;52.220;5.160;2022-10-16T06:38:37;7.35;;;1.52;;
68229;SDS011;55048;52.220;5.160;2022-10-16T06:41:03;4.97;;;1.20;;
68229;SDS011;55048;52.220;5.160;2022-10-16T06:43:30;6.13;;;1.40;;
68229;SDS011;55048;52.220;5.160;2022-10-16T06:46:00;3.85;;;1.40;;
68229;SDS011;55048;52.220;5.160;2022-10-16T06:48:27;7.38;;;1.60;;
68229;SDS011;55048;52.220;5.160;2022-10-16T06:51:00;4.28;;;1.60;;
68229;SDS011;55048;52.220;5.160;2022-10-16T06:53:28;4.45;;;1.60;;
68229;SDS011;55048;52.220;5.160;2022-10-16T06:55:55;7.22;;;1.48;;
68229;SDS011;55048;52.220;5.160;2022-10-16T06:58:20;7.07;;;1.60;;
68229;SDS011;55048;52.220;5.160;2022-10-16T07:00:46;4.30;;;1.35;;
68229;SDS011;55048;52.220;5.160;2022-10-16T07:03:12;6.55;;;1.50;;
68229;SDS011;55048;52.220;5.160;2022-10-16T07:05:38;4.35;;;1.30;;
68229;SDS011;55048;52.220;5.160;2022-10-16T07:08:04;5.35;;;1.00;;
68229;SDS011;55048;52.220;5.160;2022-10-16T07:10:31;5.13;;;1.02;;
68229;SDS011;55048;52.220;5.160;2022-10-16T07:12:56;3.58;;;0.88;;
68229;SDS011;55048;52.220;5.160;2022-10-16T07:15:22;6.18;;;1.00;;
68229;SDS011;55048;52.220;5.160;2022-10-16T07:17:48;2.40;;;0.90;;
68229;SDS011;55048;52.220;5.160;2022-10-16T07:20:13;3.33;;;0.90;;
68229;SDS011;55048;52.220;5.160;2022-10-16T07:22:38;6.32;;;1.13;;
68229;SDS011;55048;52.220;5.160;2022-10-16T07:25:04;3.35;;;0.80;;
68229;SDS011;55048;52.220;5.160;2022-10-16T07:27:30;11.48;;;0.90;;
68229;SDS011;55048;52.220;5.160;2022-10-16T07:29:55;5.78;;;1.00;;
68229;SDS011;55048;52.220;5.160;2022-10-16T07:32:20;6.68;;;0.75;;
68229;SDS011;55048;52.220;5.160;2022-10-16T07:34:46;3.22;;;0.70;;
68229;SDS011;55048;52.220;5.160;2022-10-16T07:37:11;6.32;;;0.80;;
68229;SDS011;55048;52.220;5.160;2022-10-16T07:39:36;4.25;;;0.60;;
68229;SDS011;55048;52.220;5.160;2022-10-16T07:42:02;6.88;;;0.60;;
68229;SDS011;55048;52.220;5.160;2022-10-16T07:44:27;4.50;;;0.70;;
68229;SDS011;55048;52.220;5.160;2022-10-16T07:46:53;4.63;;;0.70;;
68229;SDS011;55048;52.220;5.160;2022-10-16T07:49:18;2.67;;;0.75;;
68229;SDS011;55048;52.220;5.160;2022-10-16T07:51:43;6.80;;;0.57;;
68229;SDS011;55048;52.220;5.160;2022-10-16T07:54:09;5.40;;;0.80;;
68229;SDS011;55048;52.220;5.160;2022-10-16T07:56:35;4.25;;;0.60;;
68229;SDS011;55048;52.220;5.160;2022-10-16T07:59:00;5.78;;;0.60;;
68229;SDS011;55048;52.220;5.160;2022-10-16T08:01:25;12.85;;;0.73;;
68229;SDS011;55048;52.220;5.160;2022-10-16T08:03:51;5.88;;;0.70;;
68229;SDS011;55048;52.220;5.160;2022-10-16T08:06:17;1.83;;;0.70;;
68229;SDS011;55048;52.220;5.160;2022-10-16T08:08:45;3.85;;;0.70;;
68229;SDS011;55048;52.220;5.160;2022-10-16T08:11:10;4.60;;;0.73;;
68229;SDS011;55048;52.220;5.160;2022-10-16T08:13:36;4.25;;;0.70;;
68229;SDS011;55048;52.220;5.160;2022-10-16T08:16:02;3.22;;;0.80;;
68229;SDS011;55048;52.220;5.160;2022-10-16T08:18:32;4.68;;;1.30;;
68229;SDS011;55048;52.220;5.160;2022-10-16T08:20:59;6.28;;;0.90;;
68229;SDS011;55048;52.220;5.160;2022-10-16T08:23:25;4.72;;;0.93;;
68229;SDS011;55048;52.220;5.160;2022-10-16T08:25:51;5.18;;;0.80;;
68229;SDS011;55048;52.220;5.160;2022-10-16T08:28:18;3.45;;;0.82;;
68229;SDS011;55048;52.220;5.160;2022-10-16T08:30:44;4.28;;;1.27;;
68229;SDS011;55048;52.220;5.160;2022-10-16T08:33:10;6.88;;;1.15;;
68229;SDS011;55048;52.220;5.160;2022-10-16T08:35:36;5.95;;;1.00;;
68229;SDS011;55048;52.220;5.160;2022-10-16T08:38:04;5.80;;;1.05;;
68229;SDS011;55048;52.220;5.160;2022-10-16T08:48:19;5.30;;;0.82;;
68229;SDS011;55048;52.220;5.160;2022-10-16T08:50:49;13.45;;;0.90;;
68229;SDS011;55048;52.220;5.160;2022-10-16T08:53:22;4.05;;;0.90;;
68229;SDS011;55048;52.220;5.160;2022-10-16T08:55:53;6.78;;;1.02;;
68229;SDS011;55048;52.220;5.160;2022-10-16T08:58:20;4.80;;;0.75;;
68229;SDS011;55048;52.220;5.160;2022-10-16T09:01:01;5.15;;;0.77;;
68229;SDS011;55048;52.220;5.160;2022-10-16T09:08:54;5.07;;;0.70;;
68229;SDS011;55048;52.220;5.160;2022-10-16T09:11:54;9.35;;;0.80;;
68229;SDS011;55048;52.220;5.160;2022-10-16T09:23:16;8.25;;;0.90;;
68229;SDS011;55048;52.220;5.160;2022-10-16T09:25:52;11.77;;;0.73;;
68229;SDS011;55048;52.220;5.160;2022-10-16T09:28:19;37.22;;;2.35;;
68229;SDS011;55048;52.220;5.160;2022-10-16T09:30:44;9.30;;;1.05;;
68229;SDS011;55048;52.220;5.160;2022-10-16T09:33:12;7.10;;;1.05;;
68229;SDS011;55048;52.220;5.160;2022-10-16T09:35:39;10.30;;;1.02;;
68229;SDS011;55048;52.220;5.160;2022-10-16T09:38:07;8.73;;;1.00;;
68229;SDS011;55048;52.220;5.160;2022-10-16T09:40:37;6.05;;;1.00;;
68229;SDS011;55048;52.220;5.160;2022-10-16T09:48:28;7.93;;;1.08;;
68229;SDS011;55048;52.220;5.160;2022-10-16T09:51:01;5.22;;;0.70;;
68229;SDS011;55048;52.220;5.160;2022-10-16T09:53:37;8.63;;;0.80;;
68229;SDS011;55048;52.220;5.160;2022-10-16T09:56:04;8.52;;;0.90;;
68229;SDS011;55048;52.220;5.160;2022-10-16T09:58:31;10.18;;;0.90;;
68229;SDS011;55048;52.220;5.160;2022-10-16T10:00:58;10.18;;;1.00;;
68229;SDS011;55048;52.220;5.160;2022-10-16T10:03:35;9.77;;;0.88;;
68229;SDS011;55048;52.220;5.160;2022-10-16T10:06:16;12.50;;;0.80;;
68229;SDS011;55048;52.220;5.160;2022-10-16T10:09:13;10.07;;;0.75;;
68229;SDS011;55048;52.220;5.160;2022-10-16T10:15:13;9.18;;;0.90;;
68229;SDS011;55048;52.220;5.160;2022-10-16T10:17:56;10.52;;;0.93;;
68229;SDS011;55048;52.220;5.160;2022-10-16T10:20:27;15.57;;;1.27;;
68229;SDS011;55048;52.220;5.160;2022-10-16T10:22:58;9.50;;;0.82;;
68229;SDS011;55048;52.220;5.160;2022-10-16T10:25:52;5.20;;;0.73;;
68229;SDS011;55048;52.220;5.160;2022-10-16T10:28:46;13.35;;;1.08;;
68229;SDS011;55048;52.220;5.160;2022-10-16T10:40:29;7.47;;;0.90;;
68229;SDS011;55048;52.220;5.160;2022-10-16T10:45:38;9.02;;;0.85;;
68229;SDS011;55048;52.220;5.160;2022-10-16T11:01:56;9.98;;;0.90;;
68229;SDS011;55048;52.220;5.160;2022-10-16T11:07:31;11.38;;;1.25;;
68229;SDS011;55048;52.220;5.160;2022-10-16T11:10:12;8.70;;;1.10;;
68229;SDS011;55048;52.220;5.160;2022-10-16T11:12:42;6.25;;;0.82;;
68229;SDS011;55048;52.220;5.160;2022-10-16T11:17:52;12.70;;;1.02;;
68229;SDS011;55048;52.220;5.160;2022-10-16T11:20:23;12.73;;;1.60;;
68229;SDS011;55048;52.220;5.160;2022-10-16T11:22:55;8.93;;;0.70;;
68229;SDS011;55048;52.220;5.160;2022-10-16T11:25:24;7.97;;;0.82;;
68229;SDS011;55048;52.220;5.160;2022-10-16T11:27:56;11.38;;;0.95;;
68229;SDS011;55048;52.220;5.160;2022-10-16T11:30:27;14.60;;;1.27;;
68229;SDS011;55048;52.220;5.160;2022-10-16T11:35:43;10.90;;;1.15;;
68229;SDS011;55048;52.220;5.160;2022-10-16T11:38:20;5.95;;;0.80;;
68229;SDS011;55048;52.220;5.160;2022-10-16T11:41:15;10.45;;;0.73;;
68229;SDS011;55048;52.220;5.160;2022-10-16T11:46:40;9.05;;;0.60;;
68229;SDS011;55048;52.220;5.160;2022-10-16T11:49:18;8.93;;;0.80;;
68229;SDS011;55048;52.220;5.160;2022-10-16T11:51:53;7.97;;;0.85;;
68229;SDS011;55048;52.220;5.160;2022-10-16T11:54:56;8.40;;;0.73;;
68229;SDS011;55048;52.220;5.160;2022-10-16T11:57:38;11.32;;;0.82;;
68229;SDS011;55048;52.220;5.160;2022-10-16T12:08:20;10.43;;;0.80;;
68229;SDS011;55048;52.220;5.160;2022-10-16T12:10:46;5.25;;;0.70;;
68229;SDS011;55048;52.220;5.160;2022-10-16T12:18:36;10.82;;;0.90;;
68229;SDS011;55048;52.220;5.160;2022-10-16T12:21:02;8.57;;;0.60;;
68229;SDS011;55048;52.220;5.160;2022-10-16T12:23:32;10.10;;;0.80;;
68229;SDS011;55048;52.220;5.160;2022-10-16T12:26:02;7.38;;;0.70;;
68229;SDS011;55048;52.220;5.160;2022-10-16T12:28:33;6.88;;;0.73;;
68229;SDS011;55048;52.220;5.160;2022-10-16T12:31:04;9.65;;;0.70;;
68229;SDS011;55048;52.220;5.160;2022-10-16T12:33:32;10.15;;;1.05;;
68229;SDS011;55048;52.220;5.160;2022-10-16T12:36:00;6.82;;;0.80;;
68229;SDS011;55048;52.220;5.160;2022-10-16T12:38:35;9.73;;;1.15;;
68229;SDS011;55048;52.220;5.160;2022-10-16T12:41:04;11.63;;;0.90;;
68229;SDS011;55048;52.220;5.160;2022-10-16T12:48:33;8.75;;;0.70;;
68229;SDS011;55048;52.220;5.160;2022-10-16T12:52:00;8.48;;;0.70;;
68229;SDS011;55048;52.220;5.160;2022-10-16T13:05:13;7.60;;;0.85;;
68229;SDS011;55048;52.220;5.160;2022-10-16T13:08:02;9.05;;;0.75;;
68229;SDS011;55048;52.220;5.160;2022-10-16T13:13:47;9.18;;;0.68;;
68229;SDS011;55048;52.220;5.160;2022-10-16T13:19:18;8.25;;;0.77;;
68229;SDS011;55048;52.220;5.160;2022-10-16T13:24:38;6.80;;;0.85;;
68229;SDS011;55048;52.220;5.160;2022-10-16T13:29:45;14.00;;;0.93;;
68229;SDS011;55048;52.220;5.160;2022-10-16T13:32:18;16.13;;;0.95;;
68229;SDS011;55048;52.220;5.160;2022-10-16T13:34:46;5.82;;;0.63;;
68229;SDS011;55048;52.220;5.160;2022-10-16T13:37:20;9.43;;;0.90;;
68229;SDS011;55048;52.220;5.160;2022-10-16T13:39:47;12.05;;;0.90;;
68229;SDS011;55048;52.220;5.160;2022-10-16T13:42:26;6.65;;;0.65;;
68229;SDS011;55048;52.220;5.160;2022-10-16T13:44:54;10.27;;;0.80;;
68229;SDS011;55048;52.220;5.160;2022-10-16T13:49:47;8.13;;;0.88;;
68229;SDS011;55048;52.220;5.160;2022-10-16T13:52:28;11.52;;;1.15;;
68229;SDS011;55048;52.220;5.160;2022-10-16T13:54:54;12.52;;;0.90;;
68229;SDS011;55048;52.220;5.160;2022-10-16T13:57:21;10.60;;;0.90;;
68229;SDS011;55048;52.220;5.160;2022-10-16T13:59:48;9.10;;;0.80;;
68229;SDS011;55048;52.220;5.160;2022-10-16T14:02:27;11.10;;;0.70;;
68229;SDS011;55048;52.220;5.160;2022-10-16T14:04:57;12.52;;;0.70;;
68229;SDS011;55048;52.220;5.160;2022-10-16T14:07:27;8.80;;;0.82;;
68229;SDS011;55048;52.220;5.160;2022-10-16T14:09:56;12.20;;;0.90;;
68229;SDS011;55048;52.220;5.160;2022-10-16T14:12:26;10.07;;;0.98;;
68229;SDS011;55048;52.220;5.160;2022-10-16T14:14:53;6.25;;;0.60;;
68229;SDS011;55048;52.220;5.160;2022-10-16T14:17:33;5.80;;;0.70;;
68229;SDS011;55048;52.220;5.160;2022-10-16T14:20:12;7.72;;;0.90;;
68229;SDS011;55048;52.220;5.160;2022-10-16T14:22:41;10.25;;;0.80;;
68229;SDS011;55048;52.220;5.160;2022-10-16T14:25:24;9.90;;;1.13;;
68229;SDS011;55048;52.220;5.160;2022-10-16T14:28:14;5.65;;;0.80;;
68229;SDS011;55048;52.220;5.160;2022-10-16T14:30:49;10.20;;;0.80;;
68229;SDS011;55048;52.220;5.160;2022-10-16T14:33:31;6.13;;;0.90;;
68229;SDS011;55048;52.220;5.160;2022-10-16T14:36:00;16.02;;;2.00;;
68229;SDS011;55048;52.220;5.160;2022-10-16T14:38:28;12.52;;;1.20;;
68229;SDS011;55048;52.220;5.160;2022-10-16T14:40:54;8.63;;;1.05;;
68229;SDS011;55048;52.220;5.160;2022-10-16T14:43:36;11.07;;;1.20;;
68229;SDS011;55048;52.220;5.160;2022-10-16T14:46:06;16.33;;;1.13;;
68229;SDS011;55048;52.220;5.160;2022-10-16T14:48:42;9.77;;;0.90;;
68229;SDS011;55048;52.220;5.160;2022-10-16T14:51:19;9.32;;;0.95;;
68229;SDS011;55048;52.220;5.160;2022-10-16T14:53:45;10.43;;;1.00;;
68229;SDS011;55048;52.220;5.160;2022-10-16T14:56:16;9.77;;;0.95;;
68229;SDS011;55048;52.220;5.160;2022-10-16T14:58:43;9.25;;;1.10;;
68229;SDS011;55048;52.220;5.160;2022-10-16T15:01:09;11.98;;;0.77;;
68229;SDS011;55048;52.220;5.160;2022-10-16T15:03:36;8.65;;;1.02;;
68229;SDS011;55048;52.220;5.160;2022-10-16T15:06:02;11.05;;;1.67;;
68229;SDS011;55048;52.220;5.160;2022-10-16T15:08:28;10.52;;;1.10;;
68229;SDS011;55048;52.220;5.160;2022-10-16T15:10:53;7.55;;;1.02;;
68229;SDS011;55048;52.220;5.160;2022-10-16T15:13:19;6.28;;;1.02;;
68229;SDS011;55048;52.220;5.160;2022-10-16T15:15:45;17.88;;;1.50;;
68229;SDS011;55048;52.220;5.160;2022-10-16T15:18:12;8.20;;;1.00;;
68229;SDS011;55048;52.220;5.160;2022-10-16T15:20:39;14.90;;;1.52;;
68229;SDS011;55048;52.220;5.160;2022-10-16T15:23:09;9.30;;;1.08;;
68229;SDS011;55048;52.220;5.160;2022-10-16T15:25:41;14.30;;;1.83;;
68229;SDS011;55048;52.220;5.160;2022-10-16T15:28:09;12.07;;;1.70;;
68229;SDS011;55048;52.220;5.160;2022-10-16T15:30:35;11.77;;;1.40;;
68229;SDS011;55048;52.220;5.160;2022-10-16T15:33:02;14.55;;;1.38;;
68229;SDS011;55048;52.220;5.160;2022-10-16T15:35:28;9.98;;;1.08;;
68229;SDS011;55048;52.220;5.160;2022-10-16T15:37:54;15.73;;;1.30;;
68229;SDS011;55048;52.220;5.160;2022-10-16T15:40:20;11.27;;;1.10;;
68229;SDS011;55048;52.220;5.160;2022-10-16T15:42:46;12.98;;;1.10;;
68229;SDS011;55048;52.220;5.160;2022-10-16T15:45:12;11.00;;;1.30;;
68229;SDS011;55048;52.220;5.160;2022-10-16T15:47:38;12.18;;;1.40;;
68229;SDS011;55048;52.220;5.160;2022-10-16T15:50:05;14.45;;;1.30;;
68229;SDS011;55048;52.220;5.160;2022-10-16T15:52:31;13.13;;;1.30;;
68229;SDS011;55048;52.220;5.160;2022-10-16T15:54:57;8.57;;;1.30;;
68229;SDS011;55048;52.220;5.160;2022-10-16T15:57:23;11.82;;;1.27;;
68229;SDS011;55048;52.220;5.160;2022-10-16T15:59:49;13.60;;;1.70;;
68229;SDS011;55048;52.220;5.160;2022-10-16T16:02:15;10.77;;;1.52;;
68229;SDS011;55048;52.220;5.160;2022-10-16T16:04:40;12.68;;;1.60;;
68229;SDS011;55048;52.220;5.160;2022-10-16T16:07:06;16.38;;;1.70;;
68229;SDS011;55048;52.220;5.160;2022-10-16T16:09:34;12.23;;;1.90;;
68229;SDS011;55048;52.220;5.160;2022-10-16T16:11:59;11.07;;;1.83;;
68229;SDS011;55048;52.220;5.160;2022-10-16T16:14:26;14.90;;;2.67;;
68229;SDS011;55048;52.220;5.160;2022-10-16T16:16:55;10.40;;;2.58;;
68229;SDS011;55048;52.220;5.160;2022-10-16T16:19:22;18.02;;;2.22;;
68229;SDS011;55048;52.220;5.160;2022-10-16T16:21:48;16.02;;;2.22;;
68229;SDS011;55048;52.220;5.160;2022-10-16T16:24:14;14.80;;;3.25;;
68229;SDS011;55048;52.220;5.160;2022-10-16T16:26:39;15.07;;;3.85;;
68229;SDS011;55048;52.220;5.160;2022-10-16T16:29:12;15.02;;;3.47;;
68229;SDS011;55048;52.220;5.160;2022-10-16T16:31:38;24.58;;;3.58;;
68229;SDS011;55048;52.220;5.160;2022-10-16T16:34:05;19.83;;;5.70;;
68229;SDS011;55048;52.220;5.160;2022-10-16T16:36:31;13.95;;;3.50;;
68229;SDS011;55048;52.220;5.160;2022-10-16T16:38:57;14.68;;;4.00;;
68229;SDS011;55048;52.220;5.160;2022-10-16T16:41:23;16.75;;;3.50;;
68229;SDS011;55048;52.220;5.160;2022-10-16T16:43:50;12.50;;;4.22;;
68229;SDS011;55048;52.220;5.160;2022-10-16T16:46:17;15.93;;;5.25;;
68229;SDS011;55048;52.220;5.160;2022-10-16T16:48:43;18.40;;;4.50;;
68229;SDS011;55048;52.220;5.160;2022-10-16T16:51:10;10.95;;;4.47;;
68229;SDS011;55048;52.220;5.160;2022-10-16T16:53:40;18.42;;;5.10;;
68229;SDS011;55048;52.220;5.160;2022-10-16T16:56:06;23.88;;;5.72;;
68229;SDS011;55048;52.220;5.160;2022-10-16T16:58:32;18.60;;;4.63;;
68229;SDS011;55048;52.220;5.160;2022-10-16T17:00:59;14.73;;;4.75;;